Terminal Aerodrome Forecast
Issued by NWS

Home | Current Version | Previous Version | Text Only | Print | Product List | Glossary Off
Versions: 1 2 3 4 5 6 7 8 9 10 11 12 13 14 15 16 17 18

000
FTUS41 KCLE 292300
TAFFDY
TAF
KFDY 292320Z 3000/3024 29010KT P6SM OVC025
     FM300100 29015G25KT P6SM OVC025
     FM300700 30015G25KT P6SM OVC050
     FM301200 33015G25KT P6SM SKC
     FM302000 31009KT P6SM SCT250=

USA.gov is the U.S. government's official web portal to all federal, state and local government web resources and services.